sensor_id;sensor_type;location;lat;lon;timestamp;P1;durP1;ratioP1;P2;durP2;ratioP2
34242;SDS011;20504;43.214;27.920;2023-11-22T04:55:19;20.10;;;10.70;;
34242;SDS011;20504;43.214;27.920;2023-11-22T04:58:18;23.23;;;11.18;;
34242;SDS011;20504;43.214;27.920;2023-11-22T05:11:44;36.03;;;17.08;;
34242;SDS011;20504;43.214;27.920;2023-11-22T05:31:26;42.90;;;17.83;;
34242;SDS011;20504;43.214;27.920;2023-11-22T05:33:56;44.13;;;22.90;;
34242;SDS011;20504;43.214;27.920;2023-11-22T05:36:22;34.03;;;21.40;;
34242;SDS011;20504;43.214;27.920;2023-11-22T05:39:03;40.20;;;22.87;;
34242;SDS011;20504;43.214;27.920;2023-11-22T05:41:47;47.00;;;23.15;;
34242;SDS011;20504;43.214;27.920;2023-11-22T05:44:37;47.55;;;23.80;;
34242;SDS011;20504;43.214;27.920;2023-11-22T06:00:19;56.28;;;26.05;;
34242;SDS011;20504;43.214;27.920;2023-11-22T06:02:57;65.72;;;26.45;;
34242;SDS011;20504;43.214;27.920;2023-11-22T06:05:28;60.70;;;25.33;;
34242;SDS011;20504;43.214;27.920;2023-11-22T06:07:58;52.97;;;25.42;;
34242;SDS011;20504;43.214;27.920;2023-11-22T06:10:36;47.00;;;25.63;;
34242;SDS011;20504;43.214;27.920;2023-11-22T06:13:28;86.85;;;38.05;;
34242;SDS011;20504;43.214;27.920;2023-11-22T06:15:58;69.68;;;32.08;;
34242;SDS011;20504;43.214;27.920;2023-11-22T07:06:39;53.33;;;23.05;;
34242;SDS011;20504;43.214;27.920;2023-11-22T07:18:04;53.80;;;21.17;;
34242;SDS011;20504;43.214;27.920;2023-11-22T07:21:15;45.22;;;21.00;;
34242;SDS011;20504;43.214;27.920;2023-11-22T07:24:01;50.85;;;21.35;;
34242;SDS011;20504;43.214;27.920;2023-11-22T07:26:39;57.55;;;26.98;;
34242;SDS011;20504;43.214;27.920;2023-11-22T07:32:26;60.03;;;26.60;;
34242;SDS011;20504;43.214;27.920;2023-11-22T07:35:18;55.42;;;26.65;;
34242;SDS011;20504;43.214;27.920;2023-11-22T07:38:18;59.35;;;26.30;;
34242;SDS011;20504;43.214;27.920;2023-11-22T07:43:41;68.97;;;26.80;;
34242;SDS011;20504;43.214;27.920;2023-11-22T07:46:45;62.90;;;27.63;;
34242;SDS011;20504;43.214;27.920;2023-11-22T07:49:19;64.50;;;29.83;;
34242;SDS011;20504;43.214;27.920;2023-11-22T07:54:56;51.08;;;23.48;;
34242;SDS011;20504;43.214;27.920;2023-11-22T07:57:29;28.48;;;13.50;;
34242;SDS011;20504;43.214;27.920;2023-11-22T08:00:33;31.98;;;15.90;;
34242;SDS011;20504;43.214;27.920;2023-11-22T08:06:05;15.57;;;8.02;;
34242;SDS011;20504;43.214;27.920;2023-11-22T08:08:52;11.23;;;7.70;;
34242;SDS011;20504;43.214;27.920;2023-11-22T08:11:27;15.88;;;7.95;;
34242;SDS011;20504;43.214;27.920;2023-11-22T08:14:15;15.02;;;7.68;;
34242;SDS011;20504;43.214;27.920;2023-11-22T08:16:55;12.87;;;8.73;;
34242;SDS011;20504;43.214;27.920;2023-11-22T08:19:51;15.30;;;7.88;;
34242;SDS011;20504;43.214;27.920;2023-11-22T08:25:02;11.13;;;6.90;;
34242;SDS011;20504;43.214;27.920;2023-11-22T08:29:57;11.90;;;6.60;;
34242;SDS011;20504;43.214;27.920;2023-11-22T08:32:23;11.48;;;7.32;;
34242;SDS011;20504;43.214;27.920;2023-11-22T08:34:52;11.10;;;7.00;;
34242;SDS011;20504;43.214;27.920;2023-11-22T08:37:19;11.30;;;6.87;;
34242;SDS011;20504;43.214;27.920;2023-11-22T08:39:45;11.52;;;7.18;;
34242;SDS011;20504;43.214;27.920;2023-11-22T08:42:31;18.67;;;10.15;;
34242;SDS011;20504;43.214;27.920;2023-11-22T08:47:27;40.13;;;16.90;;
34242;SDS011;20504;43.214;27.920;2023-11-22T08:49:55;34.50;;;17.80;;
34242;SDS011;20504;43.214;27.920;2023-11-22T08:52:21;35.10;;;18.98;;
34242;SDS011;20504;43.214;27.920;2023-11-22T08:54:50;37.17;;;18.52;;
34242;SDS011;20504;43.214;27.920;2023-11-22T08:57:16;33.05;;;18.48;;
34242;SDS011;20504;43.214;27.920;2023-11-22T09:00:01;32.97;;;15.95;;
34242;SDS011;20504;43.214;27.920;2023-11-22T09:02:55;28.10;;;15.82;;
34242;SDS011;20504;43.214;27.920;2023-11-22T09:05:24;35.10;;;16.17;;
34242;SDS011;20504;43.214;27.920;2023-11-22T09:07:50;40.03;;;16.23;;
34242;SDS011;20504;43.214;27.920;2023-11-22T09:10:16;25.80;;;15.30;;
34242;SDS011;20504;43.214;27.920;2023-11-22T09:12:43;31.33;;;16.00;;
34242;SDS011;20504;43.214;27.920;2023-11-22T09:15:18;21.17;;;13.73;;
34242;SDS011;20504;43.214;27.920;2023-11-22T09:17:55;27.67;;;14.60;;
34242;SDS011;20504;43.214;27.920;2023-11-22T09:20:21;24.17;;;14.07;;
34242;SDS011;20504;43.214;27.920;2023-11-22T09:22:53;32.10;;;14.45;;
34242;SDS011;20504;43.214;27.920;2023-11-22T09:25:26;20.33;;;12.32;;
34242;SDS011;20504;43.214;27.920;2023-11-22T09:27:54;26.55;;;11.88;;
34242;SDS011;20504;43.214;27.920;2023-11-22T09:30:27;18.67;;;9.82;;
34242;SDS011;20504;43.214;27.920;2023-11-22T09:33:12;24.27;;;10.63;;
34242;SDS011;20504;43.214;27.920;2023-11-22T09:35:41;34.83;;;11.25;;
34242;SDS011;20504;43.214;27.920;2023-11-22T09:38:10;18.67;;;10.90;;
34242;SDS011;20504;43.214;27.920;2023-11-22T09:40:47;15.63;;;10.18;;
34242;SDS011;20504;43.214;27.920;2023-11-22T09:43:15;18.27;;;10.63;;
34242;SDS011;20504;43.214;27.920;2023-11-22T09:45:45;27.50;;;12.63;;
34242;SDS011;20504;43.214;27.920;2023-11-22T09:48:24;26.40;;;14.65;;
34242;SDS011;20504;43.214;27.920;2023-11-22T09:53:34;31.00;;;11.50;;
34242;SDS011;20504;43.214;27.920;2023-11-22T09:56:03;24.30;;;14.18;;
34242;SDS011;20504;43.214;27.920;2023-11-22T09:58:32;18.75;;;11.85;;
34242;SDS011;20504;43.214;27.920;2023-11-22T10:00:59;24.98;;;12.27;;
34242;SDS011;20504;43.214;27.920;2023-11-22T10:03:28;22.80;;;11.30;;
34242;SDS011;20504;43.214;27.920;2023-11-22T10:05:55;28.13;;;12.05;;
34242;SDS011;20504;43.214;27.920;2023-11-22T10:08:22;19.67;;;10.23;;
34242;SDS011;20504;43.214;27.920;2023-11-22T10:10:49;21.83;;;10.07;;
34242;SDS011;20504;43.214;27.920;2023-11-22T10:13:16;17.60;;;10.15;;
34242;SDS011;20504;43.214;27.920;2023-11-22T10:15:45;17.40;;;10.80;;
34242;SDS011;20504;43.214;27.920;2023-11-22T10:18:14;18.15;;;10.27;;
34242;SDS011;20504;43.214;27.920;2023-11-22T10:20:43;18.92;;;11.70;;
34242;SDS011;20504;43.214;27.920;2023-11-22T10:23:13;20.92;;;11.95;;
34242;SDS011;20504;43.214;27.920;2023-11-22T10:25:46;19.17;;;14.45;;
34242;SDS011;20504;43.214;27.920;2023-11-22T10:28:35;22.15;;;15.32;;
34242;SDS011;20504;43.214;27.920;2023-11-22T10:31:01;22.57;;;16.40;;
34242;SDS011;20504;43.214;27.920;2023-11-22T10:33:33;28.70;;;15.80;;
34242;SDS011;20504;43.214;27.920;2023-11-22T10:36:03;23.83;;;16.38;;
34242;SDS011;20504;43.214;27.920;2023-11-22T10:38:29;30.17;;;15.47;;
34242;SDS011;20504;43.214;27.920;2023-11-22T10:40:56;23.87;;;14.97;;
34242;SDS011;20504;43.214;27.920;2023-11-22T10:43:31;24.58;;;14.20;;
34242;SDS011;20504;43.214;27.920;2023-11-22T11:01:21;24.15;;;12.48;;
34242;SDS011;20504;43.214;27.920;2023-11-22T11:06:34;17.23;;;9.70;;
34242;SDS011;20504;43.214;27.920;2023-11-22T11:18:31;17.15;;;8.32;;
34242;SDS011;20504;43.214;27.920;2023-11-22T11:21:13;16.05;;;7.57;;
34242;SDS011;20504;43.214;27.920;2023-11-22T11:24:00;15.15;;;6.90;;
34242;SDS011;20504;43.214;27.920;2023-11-22T11:29:04;15.13;;;7.60;;
34242;SDS011;20504;43.214;27.920;2023-11-22T11:31:33;10.90;;;6.28;;
34242;SDS011;20504;43.214;27.920;2023-11-22T11:34:07;10.93;;;6.32;;
34242;SDS011;20504;43.214;27.920;2023-11-22T11:36:44;15.05;;;6.07;;
